Valle de Andalucia, Puerto Rico
Current Conditions -  °F | °C
As of 12:50 PM on Monday 24 Nov 2014 (Local Time) from TJPS Reporting Station
Few Clouds Few Clouds  
Wind Chill: 90°   Ceiling: Unl
Heat Index: 98°   Visibility: 10mi
Dew Point: 73°   Wind: 12mph
Humidity: 59%   Direction: 140°SE
Pressure: 29.97"   Gusts: 17mph
Location:  18.0073°N, 66.5912°W
Report Text: TJPS 241650Z 14010G15KT 10SM FEW030 32/23 A2997
Loading
Personal Weather Stations






























Interactive Weather Map New forecast layout! Learn more

10-Day Weather Forecast

Advertisements
Track Severe Weather on mobile